Time,TemperatureF,DewpointF,PressureIn,WindDirection,WindDirectionDegrees,WindSpeedMPH,WindSpeedGustMPH,Humidity,HourlyPrecipIn,Conditions,Clouds,dailyrainin,SoftwareType,DateUTC
2013-05-08 00:11:00,-999.0,-99.9,26.30,North,-999,-999.0,-999.0,-999,0.00,,,0.15,weatherlink.com 1.10,2013-05-08 04:11:00,
2013-05-08 00:26:00,-999.0,-99.9,26.30,North,-999,-999.0,-999.0,-999,0.00,,,0.15,weatherlink.com 1.10,2013-05-08 04:26:00,
2013-05-08 00:41:00,-999.0,-99.9,26.30,North,-999,-999.0,-999.0,-999,0.00,,,0.15,weatherlink.com 1.10,2013-05-08 04:41:00,
2013-05-08 00:56:00,-999.0,-99.9,26.30,North,-999,-999.0,-999.0,-999,0.00,,,0.15,weatherlink.com 1.10,2013-05-08 04:56:00,
2013-05-08 01:11:00,-999.0,-99.9,26.30,North,-999,-999.0,-999.0,-999,0.00,,,0.00,weatherlink.com 1.10,2013-05-08 05:11:00,
2013-05-08 01:41:00,-999.0,-99.9,26.29,North,-999,-999.0,-999.0,-999,0.00,,,0.00,weatherlink.com 1.10,2013-05-08 05:41:00,
2013-05-08 01:56:00,-999.0,-99.9,26.29,North,-999,-999.0,-999.0,-999,0.00,,,0.00,weatherlink.com 1.10,2013-05-08 05:56:00,
2013-05-08 02:11:00,-999.0,-99.9,26.28,North,-999,-999.0,-999.0,-999,0.00,,,0.00,weatherlink.com 1.10,2013-05-08 06:11:00,
2013-05-08 02:26:00,-999.0,-99.9,26.28,North,-999,-999.0,-999.0,-999,0.00,,,0.00,weatherlink.com 1.10,2013-05-08 06:26:00,
2013-05-08 03:27:00,-999.0,-99.9,26.28,North,-999,-999.0,-999.0,-999,0.00,,,0.00,weatherlink.com 1.10,2013-05-08 07:27:00,
2013-05-08 03:42:00,-999.0,-99.9,26.28,North,-999,-999.0,-999.0,-999,0.00,,,0.00,weatherlink.com 1.10,2013-05-08 07:42:00,
2013-05-08 03:57:00,-999.0,-99.9,26.28,North,-999,-999.0,-999.0,-999,0.00,,,0.00,weatherlink.com 1.10,2013-05-08 07:57:00,
2013-05-08 04:12:00,-999.0,-99.9,26.28,North,-999,-999.0,-999.0,-999,0.00,,,0.00,weatherlink.com 1.10,2013-05-08 08:12:00,
2013-05-08 04:27:00,-999.0,-99.9,26.28,North,-999,-999.0,-999.0,-999,0.00,,,0.00,weatherlink.com 1.10,2013-05-08 08:27:00,
2013-05-08 04:42:00,-999.0,-99.9,26.28,North,-999,-999.0,-999.0,-999,0.00,,,0.00,weatherlink.com 1.10,2013-05-08 08:42:00,
2013-05-08 04:57:00,-999.0,-99.9,26.29,North,-999,-999.0,-999.0,-999,0.00,,,0.00,weatherlink.com 1.10,2013-05-08 08:57:00,
2013-05-08 05:12:00,-999.0,-99.9,26.29,North,-999,-999.0,-999.0,-999,0.00,,,0.00,weatherlink.com 1.10,2013-05-08 09:12:00,
2013-05-08 05:27:00,-999.0,-99.9,26.28,North,-999,-999.0,-999.0,-999,0.00,,,0.00,weatherlink.com 1.10,2013-05-08 09:27:00,
2013-05-08 05:42:00,-999.0,-99.9,26.28,North,-999,-999.0,-999.0,-999,0.00,,,0.00,weatherlink.com 1.10,2013-05-08 09:42:00,
2013-05-08 05:57:00,-999.0,-99.9,26.29,North,-999,-999.0,-999.0,-999,0.00,,,0.00,weatherlink.com 1.10,2013-05-08 09:57:00,
2013-05-08 06:12:00,-999.0,-99.9,26.29,North,-999,-999.0,-999.0,-999,0.00,,,0.00,weatherlink.com 1.10,2013-05-08 10:12:00,
2013-05-08 06:28:00,-999.0,-99.9,26.29,North,-999,-999.0,-999.0,-999,0.00,,,0.00,weatherlink.com 1.10,2013-05-08 10:28:00,
2013-05-08 06:43:00,-999.0,-99.9,26.30,North,-999,-999.0,-999.0,-999,0.00,,,0.00,weatherlink.com 1.10,2013-05-08 10:43:00,
2013-05-08 06:58:00,-999.0,-99.9,26.30,North,-999,-999.0,-999.0,-999,0.00,,,0.00,weatherlink.com 1.10,2013-05-08 10:58:00,
2013-05-08 07:13:00,-999.0,-99.9,26.31,North,-999,-999.0,-999.0,-999,0.00,,,0.00,weatherlink.com 1.10,2013-05-08 11:13:00,
2013-05-08 07:28:00,-999.0,-99.9,26.32,North,-999,-999.0,-999.0,-999,0.00,,,0.00,weatherlink.com 1.10,2013-05-08 11:28:00,
2013-05-08 07:43:00,45.4,45.0,26.32,NW,304,0.0,0.0,98,0.00,,,0.00,weatherlink.com 1.10,2013-05-08 11:43:00,
2013-05-08 07:58:00,46.0,46.0,26.31,NW,304,0.0,0.0,98,0.00,,,0.00,weatherlink.com 1.10,2013-05-08 11:58:00,
2013-05-08 08:13:00,47.6,48.0,26.30,NNW,347,11.0,11.0,100,0.00,,,0.00,weatherlink.com 1.10,2013-05-08 12:13:00,
2013-05-08 08:28:00,48.5,48.0,26.31,WSW,241,0.0,5.0,98,0.00,,,0.00,weatherlink.com 1.10,2013-05-08 12:28:00,
2013-05-08 08:43:00,49.2,48.0,26.32,SW,223,1.0,4.0,97,0.00,,,0.00,weatherlink.com 1.10,2013-05-08 12:43:00,
2013-05-08 08:58:00,49.4,48.0,26.32,SW,217,2.0,6.0,96,0.00,,,0.00,weatherlink.com 1.10,2013-05-08 12:58:00,
2013-05-08 09:13:00,49.6,49.0,26.33,SW,215,0.0,5.0,96,0.00,,,0.00,weatherlink.com 1.10,2013-05-08 13:13:00,
2013-05-08 09:28:00,49.9,49.0,26.33,SW,215,0.0,1.0,95,0.00,,,0.00,weatherlink.com 1.10,2013-05-08 13:28:00,
2013-05-08 09:43:00,50.1,49.0,26.33,SSW,211,0.0,5.0,94,0.00,,,0.00,weatherlink.com 1.10,2013-05-08 13:43:00,
2013-05-08 09:58:00,51.6,48.0,26.33,NW,325,2.0,9.0,87,0.00,,,0.00,weatherlink.com 1.10,2013-05-08 13:58:00,
2013-05-08 10:13:00,52.9,47.0,26.33,WNW,296,4.0,7.0,81,0.00,,,0.00,weatherlink.com 1.10,2013-05-08 14:13:00,
2013-05-08 10:28:00,54.5,48.0,26.33,WSW,257,4.0,9.0,79,0.00,,,0.00,weatherlink.com 1.10,2013-05-08 14:28:00,
2013-05-08 10:43:00,54.2,47.0,26.34,WNW,289,2.0,10.0,78,0.00,,,0.00,weatherlink.com 1.10,2013-05-08 14:43:00,
2013-05-08 10:58:00,54.1,47.0,26.34,WNW,288,3.0,9.0,78,0.00,,,0.00,weatherlink.com 1.10,2013-05-08 14:58:00,
2013-05-08 11:13:00,54.1,48.0,26.35,West,277,0.0,7.0,80,0.00,,,0.00,weatherlink.com 1.10,2013-05-08 15:13:00,
2013-05-08 11:28:00,54.2,49.0,26.34,West,280,1.0,5.0,81,0.00,,,0.00,weatherlink.com 1.10,2013-05-08 15:28:00,
2013-05-08 11:43:00,54.8,48.0,26.34,SW,225,0.0,8.0,77,0.00,,,0.00,weatherlink.com 1.10,2013-05-08 15:43:00,
2013-05-08 11:58:00,55.1,48.0,26.35,SW,222,7.0,10.0,77,0.00,,,0.00,weatherlink.com 1.10,2013-05-08 15:58:00,
2013-05-08 12:13:00,54.7,48.0,26.35,WSW,251,2.0,14.0,77,0.00,,,0.00,weatherlink.com 1.10,2013-05-08 16:13:00,
2013-05-08 12:28:00,55.1,49.0,26.34,WSW,258,4.0,9.0,79,0.00,,,0.00,weatherlink.com 1.10,2013-05-08 16:28:00,
2013-05-08 12:43:00,55.4,48.0,26.34,WSW,241,8.0,13.0,75,0.00,,,0.00,weatherlink.com 1.10,2013-05-08 16:43:00,
2013-05-08 12:59:00,55.4,47.0,26.34,West,276,4.0,15.0,73,0.00,,,0.00,weatherlink.com 1.10,2013-05-08 16:59:00,
2013-05-08 13:14:00,55.3,47.0,26.34,West,263,0.0,11.0,74,0.00,,,0.00,weatherlink.com 1.10,2013-05-08 17:14:00,
2013-05-08 13:29:00,54.8,47.0,26.34,West,278,0.0,11.0,75,0.00,,,0.00,weatherlink.com 1.10,2013-05-08 17:29:00,
2013-05-08 13:44:00,54.4,48.0,26.35,West,271,2.0,10.0,78,0.00,,,0.00,weatherlink.com 1.10,2013-05-08 17:44:00,
2013-05-08 13:59:00,55.1,48.0,26.35,SW,216,4.0,14.0,76,0.00,,,0.00,weatherlink.com 1.10,2013-05-08 17:59:00,
2013-05-08 14:14:00,56.2,48.0,26.34,SSW,211,0.0,10.0,74,0.00,,,0.00,weatherlink.com 1.10,2013-05-08 18:14:00,
2013-05-08 14:29:00,56.7,47.0,26.34,WNW,295,9.0,13.0,71,0.00,,,0.00,weatherlink.com 1.10,2013-05-08 18:29:00,
2013-05-08 14:59:00,56.0,47.0,26.35,WNW,290,6.0,13.0,72,0.00,,,0.00,weatherlink.com 1.10,2013-05-08 18:59:00,
2013-05-08 15:14:00,55.7,47.0,26.35,WNW,300,5.0,10.0,72,0.00,,,0.00,weatherlink.com 1.10,2013-05-08 19:14:00,
2013-05-08 15:29:00,56.3,47.0,26.35,NNW,330,3.0,15.0,71,0.00,,,0.00,weatherlink.com 1.10,2013-05-08 19:29:00,
2013-05-08 15:44:00,55.7,48.0,26.35,West,259,1.0,12.0,74,0.00,,,0.00,weatherlink.com 1.10,2013-05-08 19:44:00,
2013-05-08 15:59:00,55.0,48.0,26.35,West,269,0.0,8.0,78,0.00,,,0.00,weatherlink.com 1.10,2013-05-08 19:59:00,
2013-05-08 16:29:00,56.9,48.0,26.34,West,265,0.0,9.0,72,0.00,,,0.00,weatherlink.com 1.10,2013-05-08 20:29:00,
2013-05-08 17:44:00,58.6,49.0,26.35,WNW,282,6.0,9.0,70,0.00,,,0.00,weatherlink.com 1.10,2013-05-08 21:44:00,
2013-05-08 17:59:00,58.7,49.0,26.35,SW,218,5.0,14.0,70,0.00,,,0.00,weatherlink.com 1.10,2013-05-08 21:59:00,
2013-05-08 18:14:00,57.5,49.0,26.35,SSW,198,5.0,9.0,73,0.00,,,0.00,weatherlink.com 1.10,2013-05-08 22:14:00,
2013-05-08 18:29:00,56.9,48.0,26.35,SW,236,2.0,8.0,73,0.00,,,0.00,weatherlink.com 1.10,2013-05-08 22:29:00,
2013-05-08 18:44:00,56.9,48.0,26.35,NW,319,7.0,8.0,72,0.00,,,0.00,weatherlink.com 1.10,2013-05-08 22:44:00,
2013-05-08 18:59:00,56.3,48.0,26.36,NNW,344,6.0,13.0,74,0.00,,,0.00,weatherlink.com 1.10,2013-05-08 22:59:00,
2013-05-08 19:14:00,55.4,49.0,26.36,WSW,257,0.0,12.0,80,0.00,,,0.00,weatherlink.com 1.10,2013-05-08 23:14:00,
2013-05-08 19:29:00,54.7,49.0,26.37,West,260,2.0,9.0,81,0.00,,,0.00,weatherlink.com 1.10,2013-05-08 23:29:00,
2013-05-08 19:44:00,54.7,49.0,26.37,WNW,284,2.0,11.0,82,0.00,,,0.00,weatherlink.com 1.10,2013-05-08 23:44:00,
2013-05-08 19:59:00,-999.0,-99.9,26.38,North,-999,-999.0,-999.0,-999,0.00,,,0.00,weatherlink.com 1.10,2013-05-08 23:59:00,
2013-05-08 20:15:00,-999.0,-99.9,26.38,North,-999,-999.0,-999.0,-999,0.00,,,0.00,weatherlink.com 1.10,2013-05-09 00:15:00,
2013-05-08 20:30:00,-999.0,-99.9,26.38,North,-999,-999.0,-999.0,-999,0.00,,,0.00,weatherlink.com 1.10,2013-05-09 00:30:00,
2013-05-08 20:45:00,-999.0,-99.9,26.39,North,-999,-999.0,-999.0,-999,0.00,,,0.00,weatherlink.com 1.10,2013-05-09 00:45:00,
2013-05-08 21:00:00,-999.0,-99.9,26.39,North,-999,-999.0,-999.0,-999,0.00,,,0.00,weatherlink.com 1.10,2013-05-09 01:00:00,
2013-05-08 21:15:00,-999.0,-99.9,26.39,North,-999,-999.0,-999.0,-999,0.00,,,0.00,weatherlink.com 1.10,2013-05-09 01:15:00,
2013-05-08 21:30:00,-999.0,-99.9,26.39,North,-999,-999.0,-999.0,-999,0.00,,,0.00,weatherlink.com 1.10,2013-05-09 01:30:00,
2013-05-08 21:45:00,-999.0,-99.9,26.40,North,-999,-999.0,-999.0,-999,0.00,,,0.00,weatherlink.com 1.10,2013-05-09 01:45:00,
2013-05-08 22:00:00,-999.0,-99.9,26.41,North,-999,-999.0,-999.0,-999,0.00,,,0.00,weatherlink.com 1.10,2013-05-09 02:00:00,
2013-05-08 22:15:00,-999.0,-99.9,26.41,North,-999,-999.0,-999.0,-999,0.00,,,0.00,weatherlink.com 1.10,2013-05-09 02:15:00,
2013-05-08 22:30:00,-999.0,-99.9,26.41,North,-999,-999.0,-999.0,-999,0.00,,,0.00,weatherlink.com 1.10,2013-05-09 02:30:00,
2013-05-08 22:45:00,-999.0,-99.9,26.41,North,-999,-999.0,-999.0,-999,0.00,,,0.00,weatherlink.com 1.10,2013-05-09 02:45:00,
2013-05-08 23:00:00,-999.0,-99.9,26.41,North,-999,-999.0,-999.0,-999,0.00,,,0.00,weatherlink.com 1.10,2013-05-09 03:00:00,
2013-05-08 23:15:00,-999.0,-99.9,26.41,North,-999,-999.0,-999.0,-999,0.00,,,0.00,weatherlink.com 1.10,2013-05-09 03:15:00,
2013-05-08 23:30:00,-999.0,-99.9,26.40,North,-999,-999.0,-999.0,-999,0.00,,,0.00,weatherlink.com 1.10,2013-05-09 03:30:00,
2013-05-08 23:46:00,-999.0,-99.9,26.40,North,-999,-999.0,-999.0,-999,0.00,,,0.00,weatherlink.com 1.10,2013-05-09 03:46:00,